createdAt,value
2023-03-22T00:01:45.793Z,4.93
2023-03-22T00:06:47.287Z,5.05
2023-03-22T00:11:48.827Z,6.05
2023-03-22T00:16:50.306Z,5.18
2023-03-22T00:21:51.847Z,6.72
2023-03-22T00:26:53.383Z,6.38
2023-03-22T00:31:54.933Z,6.53
2023-03-22T00:36:56.473Z,6.13
2023-03-22T00:41:58.163Z,5.28
2023-03-22T00:46:59.715Z,5.93
2023-03-22T00:52:01.233Z,6.35
2023-03-22T00:57:02.882Z,5.55
2023-03-22T01:02:05.213Z,6.45
2023-03-22T01:07:06.885Z,6.05
2023-03-22T01:12:10.816Z,7.72
2023-03-22T01:17:12.453Z,6.82
2023-03-22T01:22:14.027Z,6.75
2023-03-22T01:27:16.382Z,6.88
2023-03-22T01:32:17.890Z,6.72
2023-03-22T01:37:19.604Z,7.22
2023-03-22T01:42:24.534Z,7.50
2023-03-22T01:47:27.600Z,6.95
2023-03-22T01:52:29.320Z,8.13
2023-03-22T01:57:44.683Z,7.70
2023-03-22T02:03:06.142Z,7.55
2023-03-22T02:08:18.422Z,7.05
2023-03-22T02:13:50.766Z,7.07
2023-03-22T02:19:39.547Z,7.35
2023-03-22T02:25:03.088Z,8.10
2023-03-22T02:30:26.560Z,7.40
2023-03-22T02:35:31.112Z,6.55
2023-03-22T02:40:50.364Z,7.68
2023-03-22T02:46:04.445Z,7.18
2023-03-22T02:51:16.028Z,7.30
2023-03-22T02:56:44.407Z,7.05
2023-03-22T03:01:50.828Z,6.82
2023-03-22T03:06:55.566Z,8.30
2023-03-22T03:11:57.336Z,7.68
2023-03-22T03:16:58.865Z,8.60
2023-03-22T03:22:29.808Z,9.40
2023-03-22T03:27:56.432Z,8.95
2023-03-22T03:33:07.855Z,7.47
2023-03-22T03:38:15.504Z,8.35
2023-03-22T03:48:23.131Z,8.45
2023-03-22T03:53:24.975Z,10.50
2023-03-22T03:58:26.650Z,11.85
2023-03-22T04:03:28.234Z,13.52
2023-03-22T04:08:52.521Z,13.82
2023-03-22T04:13:57.086Z,12.43
2023-03-22T04:18:58.811Z,10.85
2023-03-22T04:24:00.812Z,11.60
2023-03-22T04:29:06.262Z,11.88
2023-03-22T04:34:10.609Z,9.50
2023-03-22T04:39:24.243Z,10.43
2023-03-22T04:44:44.251Z,10.40
2023-03-22T04:49:46.496Z,11.05
2023-03-22T04:54:50.136Z,10.65
2023-03-22T04:59:52.540Z,10.50
2023-03-22T05:04:55.619Z,9.40
2023-03-22T05:10:10.999Z,10.52
2023-03-22T05:15:14.044Z,10.85
2023-03-22T05:20:16.617Z,10.10
2023-03-22T05:25:23.546Z,9.75
2023-03-22T05:30:25.460Z,9.45
2023-03-22T05:35:34.978Z,9.10
2023-03-22T05:40:38.169Z,10.20
2023-03-22T05:45:40.273Z,7.07
2023-03-22T05:51:15.674Z,7.88
2023-03-22T05:56:17.896Z,7.53
2023-03-22T06:01:21.282Z,8.63
2023-03-22T06:06:22.815Z,7.15
2023-03-22T06:11:40.782Z,6.60
2023-03-22T06:16:43.166Z,5.72
2023-03-22T06:21:45.120Z,6.55
2023-03-22T06:26:49.635Z,6.35
2023-03-22T06:31:51.300Z,5.63
2023-03-22T06:36:53.672Z,4.82
2023-03-22T06:42:03.776Z,5.80
2023-03-22T06:47:06.109Z,6.22
2023-03-22T06:52:40.157Z,5.85
2023-03-22T06:57:42.862Z,5.57
2023-03-22T07:02:44.443Z,5.32
2023-03-22T07:08:12.254Z,5.13
2023-03-22T07:13:19.996Z,4.10
2023-03-22T07:18:23.813Z,4.50
2023-03-22T07:23:25.557Z,4.03
2023-03-22T07:28:30.975Z,3.25
2023-03-22T07:33:34.225Z,3.33
2023-03-22T07:38:37.110Z,2.90
2023-03-22T07:43:54.013Z,2.90
2023-03-22T07:48:58.524Z,3.40
2023-03-22T07:54:34.111Z,3.00
2023-03-22T07:59:40.080Z,2.75
2023-03-22T08:04:44.261Z,2.05
2023-03-22T08:10:09.301Z,2.65
2023-03-22T08:15:11.772Z,1.77
2023-03-22T08:20:13.494Z,1.63
2023-03-22T08:25:23.081Z,1.50
2023-03-22T08:30:25.899Z,1.02
2023-03-22T08:35:28.283Z,1.38
2023-03-22T08:40:29.978Z,1.38
2023-03-22T08:45:35.213Z,1.55
2023-03-22T08:50:43.945Z,0.90
2023-03-22T08:55:55.481Z,0.80
2023-03-22T09:01:11.832Z,1.85
2023-03-22T09:11:26.387Z,0.90
2023-03-22T09:16:27.951Z,1.20
2023-03-22T09:21:30.218Z,0.82
2023-03-22T09:26:41.891Z,0.80
2023-03-22T09:31:43.614Z,0.80
2023-03-22T09:36:51.422Z,0.80
2023-03-22T09:41:59.352Z,1.40
2023-03-22T09:47:04.746Z,0.60
2023-03-22T09:52:13.957Z,1.13
2023-03-22T09:57:21.494Z,1.48
2023-03-22T10:02:37.509Z,0.60
2023-03-22T10:08:06.739Z,0.88
2023-03-22T10:13:17.417Z,0.70
2023-03-22T10:18:26.819Z,0.90
2023-03-22T10:23:53.796Z,0.80
2023-03-22T10:29:02.764Z,0.50
2023-03-22T10:34:20.108Z,0.98
2023-03-22T10:44:49.340Z,0.57
2023-03-22T10:49:54.160Z,0.77
2023-03-22T10:55:00.166Z,1.08
2023-03-22T11:00:04.927Z,0.90
2023-03-22T11:05:06.853Z,1.25
2023-03-22T11:10:08.350Z,0.80
2023-03-22T11:15:32.553Z,1.40
2023-03-22T11:20:34.711Z,0.70
2023-03-22T11:25:44.754Z,0.80
2023-03-22T11:31:06.865Z,1.45
2023-03-22T11:36:18.624Z,0.68
2023-03-22T11:41:23.544Z,0.73
2023-03-22T11:46:25.723Z,0.73
2023-03-22T11:51:33.564Z,1.13
2023-03-22T11:56:39.841Z,0.60
2023-03-22T12:01:59.630Z,0.82
2023-03-22T12:07:05.652Z,0.50
2023-03-22T12:12:14.252Z,1.13
2023-03-22T12:17:35.493Z,1.08
2023-03-22T12:22:40.565Z,0.75
2023-03-22T12:27:47.407Z,1.10
2023-03-22T12:33:29.074Z,1.05
2023-03-22T12:38:43.970Z,1.08
2023-03-22T12:43:55.677Z,0.63
2023-03-22T12:49:33.067Z,0.88
2023-03-22T12:54:35.400Z,0.85
2023-03-22T12:59:37.839Z,0.90
2023-03-22T13:04:39.309Z,0.90
2023-03-22T13:09:48.706Z,0.95
2023-03-22T13:14:50.240Z,1.60
2023-03-22T13:19:58.491Z,0.95
2023-03-22T13:25:06.131Z,0.88
2023-03-22T13:30:32.454Z,1.05
2023-03-22T13:41:06.485Z,1.10
2023-03-22T13:46:27.666Z,0.90
2023-03-22T13:51:31.799Z,1.17
2023-03-22T13:56:42.508Z,1.48
2023-03-22T14:01:52.730Z,1.67
2023-03-22T14:06:59.976Z,1.10
2023-03-22T14:12:13.382Z,1.27
2023-03-22T14:17:42.563Z,0.93
